sensor_id;sensor_type;location;lat;lon;timestamp;P1;durP1;ratioP1;P2;durP2;ratioP2
44762;SDS011;30483;49.576;6.036;2024-03-08T04:31:08;10.73;;;9.48;;
44762;SDS011;30483;49.576;6.036;2024-03-08T04:33:34;10.73;;;9.18;;
44762;SDS011;30483;49.576;6.036;2024-03-08T04:36:17;11.10;;;9.10;;
44762;SDS011;30483;49.576;6.036;2024-03-08T04:41:43;11.18;;;9.38;;
44762;SDS011;30483;49.576;6.036;2024-03-08T04:44:10;12.00;;;9.80;;
44762;SDS011;30483;49.576;6.036;2024-03-08T04:46:37;11.32;;;9.65;;
44762;SDS011;30483;49.576;6.036;2024-03-08T04:49:03;11.43;;;9.30;;
44762;SDS011;30483;49.576;6.036;2024-03-08T04:51:29;12.60;;;9.60;;
44762;SDS011;30483;49.576;6.036;2024-03-08T04:53:55;12.35;;;9.60;;
44762;SDS011;30483;49.576;6.036;2024-03-08T04:56:22;11.43;;;9.70;;
44762;SDS011;30483;49.576;6.036;2024-03-08T04:58:47;13.13;;;10.13;;
44762;SDS011;30483;49.576;6.036;2024-03-08T05:01:13;11.10;;;9.40;;
44762;SDS011;30483;49.576;6.036;2024-03-08T05:03:39;11.40;;;9.75;;
44762;SDS011;30483;49.576;6.036;2024-03-08T05:06:05;13.00;;;9.75;;
44762;SDS011;30483;49.576;6.036;2024-03-08T05:08:30;12.35;;;9.90;;
44762;SDS011;30483;49.576;6.036;2024-03-08T05:10:56;11.57;;;9.45;;
44762;SDS011;30483;49.576;6.036;2024-03-08T05:13:22;12.38;;;10.00;;
44762;SDS011;30483;49.576;6.036;2024-03-08T05:15:48;12.52;;;9.50;;
44762;SDS011;30483;49.576;6.036;2024-03-08T05:18:17;13.88;;;10.10;;
44762;SDS011;30483;49.576;6.036;2024-03-08T05:20:43;12.13;;;9.88;;
44762;SDS011;30483;49.576;6.036;2024-03-08T05:23:09;11.93;;;9.88;;
44762;SDS011;30483;49.576;6.036;2024-03-08T05:25:34;21.55;;;15.15;;
44762;SDS011;30483;49.576;6.036;2024-03-08T05:28:01;19.63;;;12.95;;
44762;SDS011;30483;49.576;6.036;2024-03-08T05:30:26;17.42;;;12.73;;
44762;SDS011;30483;49.576;6.036;2024-03-08T05:32:52;16.45;;;13.07;;
44762;SDS011;30483;49.576;6.036;2024-03-08T05:35:18;14.43;;;11.48;;
44762;SDS011;30483;49.576;6.036;2024-03-08T05:37:43;14.13;;;11.48;;
44762;SDS011;30483;49.576;6.036;2024-03-08T05:40:09;15.55;;;12.18;;
44762;SDS011;30483;49.576;6.036;2024-03-08T05:42:35;13.35;;;10.93;;
44762;SDS011;30483;49.576;6.036;2024-03-08T05:45:04;13.70;;;10.73;;
44762;SDS011;30483;49.576;6.036;2024-03-08T05:47:35;15.43;;;11.45;;
44762;SDS011;30483;49.576;6.036;2024-03-08T05:50:01;12.15;;;10.40;;
44762;SDS011;30483;49.576;6.036;2024-03-08T05:52:27;13.93;;;10.77;;
44762;SDS011;30483;49.576;6.036;2024-03-08T05:54:53;14.23;;;10.77;;
44762;SDS011;30483;49.576;6.036;2024-03-08T05:57:18;14.32;;;10.65;;
44762;SDS011;30483;49.576;6.036;2024-03-08T05:59:44;14.95;;;10.38;;
44762;SDS011;30483;49.576;6.036;2024-03-08T06:02:10;14.27;;;10.65;;
44762;SDS011;30483;49.576;6.036;2024-03-08T06:04:35;12.07;;;10.10;;
44762;SDS011;30483;49.576;6.036;2024-03-08T06:07:01;14.18;;;11.23;;
44762;SDS011;30483;49.576;6.036;2024-03-08T06:09:28;12.68;;;10.00;;
44762;SDS011;30483;49.576;6.036;2024-03-08T06:11:54;14.13;;;10.77;;
44762;SDS011;30483;49.576;6.036;2024-03-08T06:14:20;13.93;;;11.13;;
44762;SDS011;30483;49.576;6.036;2024-03-08T06:16:46;12.93;;;10.30;;
44762;SDS011;30483;49.576;6.036;2024-03-08T06:19:12;12.63;;;10.15;;
44762;SDS011;30483;49.576;6.036;2024-03-08T06:21:38;12.20;;;10.05;;
44762;SDS011;30483;49.576;6.036;2024-03-08T06:24:04;12.73;;;10.55;;
44762;SDS011;30483;49.576;6.036;2024-03-08T06:26:30;12.77;;;10.10;;
44762;SDS011;30483;49.576;6.036;2024-03-08T06:28:56;13.27;;;9.73;;
44762;SDS011;30483;49.576;6.036;2024-03-08T06:31:22;20.42;;;12.50;;
44762;SDS011;30483;49.576;6.036;2024-03-08T06:33:48;15.45;;;11.30;;
44762;SDS011;30483;49.576;6.036;2024-03-08T06:36:19;15.50;;;10.85;;
44762;SDS011;30483;49.576;6.036;2024-03-08T06:38:46;13.05;;;11.07;;
44762;SDS011;30483;49.576;6.036;2024-03-08T06:41:15;13.23;;;10.93;;
44762;SDS011;30483;49.576;6.036;2024-03-08T06:43:42;13.23;;;10.55;;
44762;SDS011;30483;49.576;6.036;2024-03-08T06:46:11;16.08;;;12.90;;
44762;SDS011;30483;49.576;6.036;2024-03-08T06:48:38;17.48;;;12.00;;
44762;SDS011;30483;49.576;6.036;2024-03-08T06:51:04;15.30;;;11.65;;
44762;SDS011;30483;49.576;6.036;2024-03-08T06:53:30;13.63;;;11.07;;
44762;SDS011;30483;49.576;6.036;2024-03-08T06:55:56;13.52;;;10.98;;
44762;SDS011;30483;49.576;6.036;2024-03-08T06:58:22;13.60;;;11.35;;
44762;SDS011;30483;49.576;6.036;2024-03-08T07:00:48;15.35;;;11.63;;
44762;SDS011;30483;49.576;6.036;2024-03-08T07:03:17;13.57;;;11.15;;
44762;SDS011;30483;49.576;6.036;2024-03-08T07:05:44;16.88;;;11.48;;
44762;SDS011;30483;49.576;6.036;2024-03-08T07:08:10;14.30;;;10.95;;
44762;SDS011;30483;49.576;6.036;2024-03-08T07:10:39;13.60;;;10.27;;
44762;SDS011;30483;49.576;6.036;2024-03-08T07:13:06;12.80;;;10.82;;
44762;SDS011;30483;49.576;6.036;2024-03-08T07:15:32;11.90;;;9.80;;
44762;SDS011;30483;49.576;6.036;2024-03-08T07:17:58;14.65;;;10.30;;
44762;SDS011;30483;49.576;6.036;2024-03-08T07:20:24;13.80;;;10.55;;
44762;SDS011;30483;49.576;6.036;2024-03-08T07:22:50;12.10;;;9.40;;
44762;SDS011;30483;49.576;6.036;2024-03-08T07:25:16;13.30;;;10.38;;
44762;SDS011;30483;49.576;6.036;2024-03-08T07:27:50;12.95;;;8.98;;
44762;SDS011;30483;49.576;6.036;2024-03-08T07:30:16;13.43;;;9.98;;
44762;SDS011;30483;49.576;6.036;2024-03-08T07:33:02;12.60;;;10.05;;
44762;SDS011;30483;49.576;6.036;2024-03-08T07:35:28;13.93;;;10.50;;
44762;SDS011;30483;49.576;6.036;2024-03-08T07:37:54;15.88;;;10.60;;
44762;SDS011;30483;49.576;6.036;2024-03-08T07:40:23;14.30;;;11.10;;
44762;SDS011;30483;49.576;6.036;2024-03-08T07:42:49;11.68;;;9.85;;
44762;SDS011;30483;49.576;6.036;2024-03-08T07:45:17;13.75;;;10.70;;
44762;SDS011;30483;49.576;6.036;2024-03-08T07:47:43;15.18;;;10.10;;
44762;SDS011;30483;49.576;6.036;2024-03-08T07:50:09;12.82;;;10.18;;
44762;SDS011;30483;49.576;6.036;2024-03-08T07:52:35;13.18;;;10.73;;
44762;SDS011;30483;49.576;6.036;2024-03-08T07:55:04;18.60;;;11.05;;
44762;SDS011;30483;49.576;6.036;2024-03-08T07:57:30;13.77;;;10.40;;
44762;SDS011;30483;49.576;6.036;2024-03-08T07:59:57;14.68;;;10.57;;
44762;SDS011;30483;49.576;6.036;2024-03-08T08:02:23;14.05;;;9.85;;
44762;SDS011;30483;49.576;6.036;2024-03-08T08:04:48;12.90;;;10.10;;
44762;SDS011;30483;49.576;6.036;2024-03-08T08:07:14;15.73;;;10.73;;
44762;SDS011;30483;49.576;6.036;2024-03-08T08:09:40;14.73;;;10.52;;
44762;SDS011;30483;49.576;6.036;2024-03-08T08:12:08;13.68;;;10.90;;
44762;SDS011;30483;49.576;6.036;2024-03-08T08:14:37;13.32;;;10.73;;
44762;SDS011;30483;49.576;6.036;2024-03-08T08:17:06;12.88;;;9.98;;
44762;SDS011;30483;49.576;6.036;2024-03-08T08:19:33;12.68;;;10.30;;
44762;SDS011;30483;49.576;6.036;2024-03-08T08:22:00;12.18;;;10.25;;
44762;SDS011;30483;49.576;6.036;2024-03-08T08:24:29;12.52;;;9.43;;
44762;SDS011;30483;49.576;6.036;2024-03-08T08:26:55;13.95;;;10.80;;
44762;SDS011;30483;49.576;6.036;2024-03-08T08:29:21;12.90;;;10.27;;
44762;SDS011;30483;49.576;6.036;2024-03-08T08:31:47;13.68;;;10.00;;
44762;SDS011;30483;49.576;6.036;2024-03-08T08:34:14;11.15;;;9.48;;
44762;SDS011;30483;49.576;6.036;2024-03-08T08:36:42;12.80;;;10.38;;
44762;SDS011;30483;49.576;6.036;2024-03-08T08:39:07;14.50;;;10.15;;
44762;SDS011;30483;49.576;6.036;2024-03-08T08:41:38;10.82;;;9.25;;
44762;SDS011;30483;49.576;6.036;2024-03-08T08:44:05;11.63;;;9.65;;
44762;SDS011;30483;49.576;6.036;2024-03-08T08:46:33;15.23;;;9.57;;
44762;SDS011;30483;49.576;6.036;2024-03-08T08:49:00;11.70;;;9.60;;
44762;SDS011;30483;49.576;6.036;2024-03-08T08:51:26;15.10;;;10.52;;
44762;SDS011;30483;49.576;6.036;2024-03-08T08:53:52;12.48;;;9.82;;
44762;SDS011;30483;49.576;6.036;2024-03-08T08:56:18;11.23;;;9.35;;
44762;SDS011;30483;49.576;6.036;2024-03-08T08:58:44;12.95;;;9.73;;
44762;SDS011;30483;49.576;6.036;2024-03-08T09:01:10;11.98;;;9.80;;
44762;SDS011;30483;49.576;6.036;2024-03-08T09:03:36;11.60;;;9.18;;
44762;SDS011;30483;49.576;6.036;2024-03-08T09:06:05;12.85;;;10.13;;
44762;SDS011;30483;49.576;6.036;2024-03-08T09:08:34;10.05;;;9.00;;
44762;SDS011;30483;49.576;6.036;2024-03-08T09:11:01;11.93;;;9.68;;
44762;SDS011;30483;49.576;6.036;2024-03-08T09:13:26;12.02;;;9.38;;
44762;SDS011;30483;49.576;6.036;2024-03-08T09:15:52;11.93;;;9.10;;
44762;SDS011;30483;49.576;6.036;2024-03-08T09:18:18;12.02;;;9.10;;
44762;SDS011;30483;49.576;6.036;2024-03-08T09:20:44;10.52;;;8.77;;
44762;SDS011;30483;49.576;6.036;2024-03-08T09:23:10;11.48;;;8.85;;
44762;SDS011;30483;49.576;6.036;2024-03-08T09:25:35;12.10;;;9.48;;
44762;SDS011;30483;49.576;6.036;2024-03-08T09:28:01;11.07;;;8.35;;
44762;SDS011;30483;49.576;6.036;2024-03-08T09:30:27;10.27;;;8.43;;
44762;SDS011;30483;49.576;6.036;2024-03-08T09:32:53;10.68;;;8.68;;
44762;SDS011;30483;49.576;6.036;2024-03-08T09:35:19;11.32;;;8.70;;
44762;SDS011;30483;49.576;6.036;2024-03-08T09:37:45;11.32;;;9.18;;
44762;SDS011;30483;49.576;6.036;2024-03-08T09:40:12;11.02;;;9.05;;
44762;SDS011;30483;49.576;6.036;2024-03-08T09:42:40;10.63;;;8.90;;
44762;SDS011;30483;49.576;6.036;2024-03-08T09:45:10;9.95;;;8.63;;
44762;SDS011;30483;49.576;6.036;2024-03-08T09:50:05;10.07;;;8.48;;
44762;SDS011;30483;49.576;6.036;2024-03-08T09:52:34;11.38;;;8.40;;
44762;SDS011;30483;49.576;6.036;2024-03-08T09:55:09;11.05;;;9.35;;
44762;SDS011;30483;49.576;6.036;2024-03-08T09:57:36;11.73;;;9.02;;
44762;SDS011;30483;49.576;6.036;2024-03-08T10:00:03;10.93;;;9.13;;
44762;SDS011;30483;49.576;6.036;2024-03-08T10:02:46;11.07;;;8.55;;
44762;SDS011;30483;49.576;6.036;2024-03-08T10:05:12;11.20;;;8.90;;
44762;SDS011;30483;49.576;6.036;2024-03-08T10:07:39;11.65;;;9.20;;
44762;SDS011;30483;49.576;6.036;2024-03-08T10:10:05;9.73;;;8.50;;
44762;SDS011;30483;49.576;6.036;2024-03-08T10:12:33;10.32;;;8.63;;
44762;SDS011;30483;49.576;6.036;2024-03-08T10:15:01;12.13;;;9.20;;
44762;SDS011;30483;49.576;6.036;2024-03-08T10:17:27;11.32;;;8.90;;
44762;SDS011;30483;49.576;6.036;2024-03-08T10:22:25;11.05;;;8.68;;
44762;SDS011;30483;49.576;6.036;2024-03-08T10:24:50;11.52;;;9.07;;
44762;SDS011;30483;49.576;6.036;2024-03-08T10:27:16;10.30;;;8.77;;
44762;SDS011;30483;49.576;6.036;2024-03-08T10:29:42;12.98;;;9.35;;
44762;SDS011;30483;49.576;6.036;2024-03-08T10:32:11;12.52;;;9.13;;
44762;SDS011;30483;49.576;6.036;2024-03-08T10:34:37;10.65;;;8.75;;
44762;SDS011;30483;49.576;6.036;2024-03-08T10:37:05;11.13;;;9.20;;
44762;SDS011;30483;49.576;6.036;2024-03-08T10:39:36;12.07;;;9.23;;
44762;SDS011;30483;49.576;6.036;2024-03-08T10:42:03;10.23;;;8.13;;
44762;SDS011;30483;49.576;6.036;2024-03-08T10:52:33;10.80;;;8.20;;
44762;SDS011;30483;49.576;6.036;2024-03-08T10:54:59;11.07;;;9.00;;
44762;SDS011;30483;49.576;6.036;2024-03-08T10:57:27;11.43;;;8.82;;
44762;SDS011;30483;49.576;6.036;2024-03-08T10:59:53;10.82;;;9.07;;
44762;SDS011;30483;49.576;6.036;2024-03-08T11:02:20;12.80;;;9.00;;
44762;SDS011;30483;49.576;6.036;2024-03-08T11:04:46;10.52;;;8.38;;
44762;SDS011;30483;49.576;6.036;2024-03-08T11:07:15;12.90;;;10.57;;
44762;SDS011;30483;49.576;6.036;2024-03-08T11:09:45;12.27;;;10.05;;
44762;SDS011;30483;49.576;6.036;2024-03-08T11:12:26;11.68;;;8.85;;
44762;SDS011;30483;49.576;6.036;2024-03-08T11:14:56;12.18;;;9.55;;
44762;SDS011;30483;49.576;6.036;2024-03-08T11:17:47;11.65;;;9.30;;
44762;SDS011;30483;49.576;6.036;2024-03-08T11:20:18;12.17;;;9.20;;
44762;SDS011;30483;49.576;6.036;2024-03-08T11:22:52;11.50;;;9.35;;
44762;SDS011;30483;49.576;6.036;2024-03-08T11:28:13;8.93;;;6.88;;
44762;SDS011;30483;49.576;6.036;2024-03-08T11:31:28;12.43;;;9.88;;
44762;SDS011;30483;49.576;6.036;2024-03-08T11:33:29;11.27;;;8.88;;
44762;SDS011;30483;49.576;6.036;2024-03-08T11:38:42;11.13;;;9.25;;
44762;SDS011;30483;49.576;6.036;2024-03-08T11:41:13;11.57;;;8.98;;
44762;SDS011;30483;49.576;6.036;2024-03-08T11:43:40;9.88;;;8.30;;
44762;SDS011;30483;49.576;6.036;2024-03-08T11:46:09;10.70;;;8.93;;
44762;SDS011;30483;49.576;6.036;2024-03-08T11:48:37;12.55;;;8.68;;
44762;SDS011;30483;49.576;6.036;2024-03-08T11:51:12;12.15;;;8.40;;
44762;SDS011;30483;49.576;6.036;2024-03-08T11:53:39;11.18;;;8.95;;
44762;SDS011;30483;49.576;6.036;2024-03-08T11:56:12;11.82;;;8.25;;
44762;SDS011;30483;49.576;6.036;2024-03-08T11:58:39;9.30;;;8.10;;
44762;SDS011;30483;49.576;6.036;2024-03-08T12:01:06;11.77;;;9.30;;
44762;SDS011;30483;49.576;6.036;2024-03-08T12:03:39;10.27;;;8.30;;
44762;SDS011;30483;49.576;6.036;2024-03-08T12:06:07;9.48;;;8.20;;
44762;SDS011;30483;49.576;6.036;2024-03-08T12:08:34;11.52;;;9.25;;
44762;SDS011;30483;49.576;6.036;2024-03-08T12:11:01;10.48;;;8.73;;
44762;SDS011;30483;49.576;6.036;2024-03-08T12:13:29;11.88;;;8.60;;
44762;SDS011;30483;49.576;6.036;2024-03-08T12:15:57;9.77;;;8.30;;
44762;SDS011;30483;49.576;6.036;2024-03-08T12:18:33;10.93;;;7.32;;
44762;SDS011;30483;49.576;6.036;2024-03-08T12:21:06;9.52;;;6.47;;
44762;SDS011;30483;49.576;6.036;2024-03-08T12:23:33;16.17;;;9.82;;
44762;SDS011;30483;49.576;6.036;2024-03-08T12:26:12;11.85;;;9.30;;
44762;SDS011;30483;49.576;6.036;2024-03-08T12:28:40;10.77;;;8.63;;
44762;SDS011;30483;49.576;6.036;2024-03-08T12:31:13;11.27;;;8.38;;
44762;SDS011;30483;49.576;6.036;2024-03-08T12:33:54;12.32;;;8.52;;
44762;SDS011;30483;49.576;6.036;2024-03-08T12:36:24;11.75;;;8.35;;
44762;SDS011;30483;49.576;6.036;2024-03-08T12:38:50;9.40;;;8.40;;
44762;SDS011;30483;49.576;6.036;2024-03-08T12:41:19;11.35;;;8.65;;
44762;SDS011;30483;49.576;6.036;2024-03-08T12:43:46;10.93;;;9.30;;
44762;SDS011;30483;49.576;6.036;2024-03-08T12:48:47;10.65;;;8.55;;
44762;SDS011;30483;49.576;6.036;2024-03-08T12:51:14;12.93;;;9.60;;
44762;SDS011;30483;49.576;6.036;2024-03-08T12:53:43;11.75;;;9.20;;
44762;SDS011;30483;49.576;6.036;2024-03-08T12:56:10;11.27;;;9.07;;
44762;SDS011;30483;49.576;6.036;2024-03-08T12:58:45;9.90;;;7.07;;
44762;SDS011;30483;49.576;6.036;2024-03-08T13:01:10;10.27;;;7.20;;
44762;SDS011;30483;49.576;6.036;2024-03-08T13:03:37;11.23;;;8.10;;
44762;SDS011;30483;49.576;6.036;2024-03-08T13:06:03;10.20;;;7.72;;
44762;SDS011;30483;49.576;6.036;2024-03-08T13:08:33;12.68;;;8.70;;
44762;SDS011;30483;49.576;6.036;2024-03-08T13:11:08;11.82;;;8.43;;
44762;SDS011;30483;49.576;6.036;2024-03-08T13:13:37;10.18;;;8.38;;
44762;SDS011;30483;49.576;6.036;2024-03-08T13:16:05;13.00;;;9.23;;
44762;SDS011;30483;49.576;6.036;2024-03-08T13:18:34;11.57;;;8.00;;
44762;SDS011;30483;49.576;6.036;2024-03-08T13:21:00;10.43;;;7.05;;
44762;SDS011;30483;49.576;6.036;2024-03-08T13:23:32;9.00;;;6.70;;
44762;SDS011;30483;49.576;6.036;2024-03-08T13:26:08;7.47;;;6.70;;
44762;SDS011;30483;49.576;6.036;2024-03-08T13:28:37;8.73;;;7.22;;
44762;SDS011;30483;49.576;6.036;2024-03-08T13:31:06;9.80;;;7.50;;
44762;SDS011;30483;49.576;6.036;2024-03-08T13:33:35;9.27;;;7.57;;
44762;SDS011;30483;49.576;6.036;2024-03-08T13:36:08;9.52;;;7.95;;
44762;SDS011;30483;49.576;6.036;2024-03-08T13:38:43;10.07;;;7.82;;
44762;SDS011;30483;49.576;6.036;2024-03-08T13:41:16;9.25;;;7.60;;
44762;SDS011;30483;49.576;6.036;2024-03-08T13:43:51;10.75;;;8.13;;
44762;SDS011;30483;49.576;6.036;2024-03-08T13:46:18;11.55;;;7.72;;
44762;SDS011;30483;49.576;6.036;2024-03-08T13:48:43;9.52;;;7.93;;
44762;SDS011;30483;49.576;6.036;2024-03-08T13:51:09;8.80;;;7.47;;
44762;SDS011;30483;49.576;6.036;2024-03-08T13:53:37;9.43;;;7.57;;
44762;SDS011;30483;49.576;6.036;2024-03-08T13:56:04;9.10;;;7.30;;
44762;SDS011;30483;49.576;6.036;2024-03-08T13:58:30;11.13;;;7.95;;
44762;SDS011;30483;49.576;6.036;2024-03-08T14:00:56;9.85;;;8.07;;
44762;SDS011;30483;49.576;6.036;2024-03-08T14:03:22;11.18;;;7.85;;
44762;SDS011;30483;49.576;6.036;2024-03-08T14:05:49;12.10;;;8.27;;
44762;SDS011;30483;49.576;6.036;2024-03-08T14:08:15;10.77;;;7.85;;
44762;SDS011;30483;49.576;6.036;2024-03-08T14:10:42;8.27;;;7.32;;
44762;SDS011;30483;49.576;6.036;2024-03-08T14:13:08;11.10;;;7.90;;
44762;SDS011;30483;49.576;6.036;2024-03-08T14:15:34;9.80;;;7.50;;
44762;SDS011;30483;49.576;6.036;2024-03-08T14:18:00;9.63;;;7.88;;
44762;SDS011;30483;49.576;6.036;2024-03-08T14:20:26;8.82;;;7.70;;
44762;SDS011;30483;49.576;6.036;2024-03-08T14:22:55;9.82;;;7.80;;
44762;SDS011;30483;49.576;6.036;2024-03-08T14:25:21;9.10;;;7.80;;
44762;SDS011;30483;49.576;6.036;2024-03-08T14:27:49;11.48;;;8.10;;
44762;SDS011;30483;49.576;6.036;2024-03-08T14:33:00;9.82;;;8.23;;
44762;SDS011;30483;49.576;6.036;2024-03-08T14:35:27;10.85;;;8.43;;
44762;SDS011;30483;49.576;6.036;2024-03-08T14:37:54;8.77;;;7.80;;
44762;SDS011;30483;49.576;6.036;2024-03-08T14:40:22;10.45;;;7.93;;
44762;SDS011;30483;49.576;6.036;2024-03-08T14:42:49;10.85;;;7.63;;
44762;SDS011;30483;49.576;6.036;2024-03-08T14:45:15;10.63;;;8.57;;
44762;SDS011;30483;49.576;6.036;2024-03-08T14:47:44;8.50;;;7.60;;
44762;SDS011;30483;49.576;6.036;2024-03-08T14:50:19;10.45;;;8.75;;
44762;SDS011;30483;49.576;6.036;2024-03-08T14:52:46;13.25;;;9.00;;
44762;SDS011;30483;49.576;6.036;2024-03-08T14:55:15;10.68;;;8.80;;
44762;SDS011;30483;49.576;6.036;2024-03-08T14:57:41;10.40;;;7.88;;
44762;SDS011;30483;49.576;6.036;2024-03-08T15:00:10;10.85;;;8.20;;
44762;SDS011;30483;49.576;6.036;2024-03-08T15:02:44;11.80;;;8.52;;
44762;SDS011;30483;49.576;6.036;2024-03-08T15:05:10;11.10;;;8.60;;
44762;SDS011;30483;49.576;6.036;2024-03-08T15:07:38;10.35;;;8.27;;
44762;SDS011;30483;49.576;6.036;2024-03-08T15:10:06;10.93;;;8.25;;
44762;SDS011;30483;49.576;6.036;2024-03-08T15:12:36;11.20;;;8.95;;
44762;SDS011;30483;49.576;6.036;2024-03-08T15:15:04;9.02;;;7.57;;
44762;SDS011;30483;49.576;6.036;2024-03-08T15:17:33;13.05;;;8.60;;
44762;SDS011;30483;49.576;6.036;2024-03-08T15:20:05;9.13;;;7.97;;
44762;SDS011;30483;49.576;6.036;2024-03-08T15:22:40;11.95;;;8.18;;
44762;SDS011;30483;49.576;6.036;2024-03-08T15:25:07;10.68;;;8.05;;
44762;SDS011;30483;49.576;6.036;2024-03-08T15:27:32;10.10;;;7.95;;
44762;SDS011;30483;49.576;6.036;2024-03-08T15:30:01;10.85;;;8.50;;
44762;SDS011;30483;49.576;6.036;2024-03-08T15:32:27;10.20;;;8.45;;
44762;SDS011;30483;49.576;6.036;2024-03-08T15:34:57;9.90;;;8.25;;
44762;SDS011;30483;49.576;6.036;2024-03-08T15:37:23;10.20;;;8.73;;
44762;SDS011;30483;49.576;6.036;2024-03-08T15:39:50;9.57;;;7.88;;
44762;SDS011;30483;49.576;6.036;2024-03-08T15:42:16;10.50;;;8.65;;
44762;SDS011;30483;49.576;6.036;2024-03-08T15:44:42;9.70;;;8.15;;
44762;SDS011;30483;49.576;6.036;2024-03-08T15:47:08;11.77;;;8.82;;
44762;SDS011;30483;49.576;6.036;2024-03-08T15:49:36;10.13;;;8.82;;
44762;SDS011;30483;49.576;6.036;2024-03-08T15:52:02;10.80;;;8.77;;
44762;SDS011;30483;49.576;6.036;2024-03-08T15:54:29;11.10;;;8.65;;
44762;SDS011;30483;49.576;6.036;2024-03-08T15:56:55;9.70;;;8.20;;
44762;SDS011;30483;49.576;6.036;2024-03-08T15:59:22;10.20;;;8.50;;
44762;SDS011;30483;49.576;6.036;2024-03-08T16:01:48;9.32;;;8.32;;
44762;SDS011;30483;49.576;6.036;2024-03-08T16:04:16;9.60;;;8.38;;
44762;SDS011;30483;49.576;6.036;2024-03-08T16:06:41;10.10;;;8.30;;
44762;SDS011;30483;49.576;6.036;2024-03-08T16:09:09;11.35;;;8.25;;
44762;SDS011;30483;49.576;6.036;2024-03-08T16:11:40;16.83;;;11.00;;
44762;SDS011;30483;49.576;6.036;2024-03-08T16:14:06;11.82;;;9.60;;
44762;SDS011;30483;49.576;6.036;2024-03-08T16:16:36;11.50;;;9.73;;
44762;SDS011;30483;49.576;6.036;2024-03-08T16:19:04;17.20;;;10.82;;
44762;SDS011;30483;49.576;6.036;2024-03-08T16:21:32;12.75;;;9.80;;
44762;SDS011;30483;49.576;6.036;2024-03-08T16:23:58;12.77;;;8.57;;
44762;SDS011;30483;49.576;6.036;2024-03-08T16:26:25;11.13;;;9.55;;
44762;SDS011;30483;49.576;6.036;2024-03-08T16:28:52;11.32;;;8.73;;
44762;SDS011;30483;49.576;6.036;2024-03-08T16:31:20;14.40;;;8.95;;
44762;SDS011;30483;49.576;6.036;2024-03-08T16:33:46;11.23;;;9.18;;
44762;SDS011;30483;49.576;6.036;2024-03-08T16:36:12;11.20;;;8.88;;
44762;SDS011;30483;49.576;6.036;2024-03-08T16:38:38;10.30;;;8.52;;
44762;SDS011;30483;49.576;6.036;2024-03-08T16:41:05;11.00;;;8.70;;
44762;SDS011;30483;49.576;6.036;2024-03-08T16:43:31;11.77;;;8.82;;
44762;SDS011;30483;49.576;6.036;2024-03-08T16:45:57;11.38;;;8.48;;
44762;SDS011;30483;49.576;6.036;2024-03-08T16:48:25;9.90;;;8.40;;
44762;SDS011;30483;49.576;6.036;2024-03-08T16:50:51;10.20;;;8.13;;
44762;SDS011;30483;49.576;6.036;2024-03-08T16:53:19;10.48;;;8.25;;
44762;SDS011;30483;49.576;6.036;2024-03-08T16:55:45;17.00;;;11.32;;
44762;SDS011;30483;49.576;6.036;2024-03-08T16:58:12;22.08;;;12.57;;
44762;SDS011;30483;49.576;6.036;2024-03-08T17:00:42;16.83;;;12.43;;
44762;SDS011;30483;49.576;6.036;2024-03-08T17:03:07;17.00;;;11.32;;
44762;SDS011;30483;49.576;6.036;2024-03-08T17:05:33;14.43;;;10.57;;
44762;SDS011;30483;49.576;6.036;2024-03-08T17:08:00;14.45;;;10.75;;
44762;SDS011;30483;49.576;6.036;2024-03-08T17:10:30;11.98;;;10.48;;
44762;SDS011;30483;49.576;6.036;2024-03-08T17:12:57;12.65;;;10.48;;
44762;SDS011;30483;49.576;6.036;2024-03-08T17:15:26;15.57;;;10.45;;
44762;SDS011;30483;49.576;6.036;2024-03-08T17:17:54;11.98;;;9.68;;
44762;SDS011;30483;49.576;6.036;2024-03-08T17:20:21;14.52;;;9.65;;
44762;SDS011;30483;49.576;6.036;2024-03-08T17:22:51;12.95;;;10.23;;
44762;SDS011;30483;49.576;6.036;2024-03-08T17:25:19;13.60;;;9.65;;
44762;SDS011;30483;49.576;6.036;2024-03-08T17:27:46;11.38;;;8.98;;
44762;SDS011;30483;49.576;6.036;2024-03-08T17:30:18;13.52;;;10.07;;
44762;SDS011;30483;49.576;6.036;2024-03-08T17:33:03;12.32;;;9.13;;
44762;SDS011;30483;49.576;6.036;2024-03-08T17:35:32;11.88;;;9.18;;
44762;SDS011;30483;49.576;6.036;2024-03-08T17:37:59;10.93;;;8.60;;
44762;SDS011;30483;49.576;6.036;2024-03-08T17:40:26;13.57;;;8.82;;
44762;SDS011;30483;49.576;6.036;2024-03-08T17:45:24;13.55;;;8.27;;
44762;SDS011;30483;49.576;6.036;2024-03-08T17:47:51;10.75;;;8.63;;
44762;SDS011;30483;49.576;6.036;2024-03-08T17:50:18;11.05;;;8.32;;
44762;SDS011;30483;49.576;6.036;2024-03-08T17:52:44;11.45;;;9.15;;
44762;SDS011;30483;49.576;6.036;2024-03-08T17:55:11;10.75;;;8.70;;
44762;SDS011;30483;49.576;6.036;2024-03-08T17:57:44;11.10;;;9.13;;
44762;SDS011;30483;49.576;6.036;2024-03-08T18:00:10;11.07;;;8.80;;
44762;SDS011;30483;49.576;6.036;2024-03-08T18:02:57;11.18;;;8.38;;
44762;SDS011;30483;49.576;6.036;2024-03-08T18:05:24;11.77;;;8.90;;
44762;SDS011;30483;49.576;6.036;2024-03-08T18:08:00;12.75;;;9.60;;
44762;SDS011;30483;49.576;6.036;2024-03-08T18:10:27;12.20;;;8.90;;
44762;SDS011;30483;49.576;6.036;2024-03-08T18:12:55;11.52;;;8.98;;
44762;SDS011;30483;49.576;6.036;2024-03-08T18:15:27;12.93;;;8.77;;
44762;SDS011;30483;49.576;6.036;2024-03-08T18:17:56;10.68;;;8.63;;
44762;SDS011;30483;49.576;6.036;2024-03-08T18:20:30;10.93;;;8.23;;
44762;SDS011;30483;49.576;6.036;2024-03-08T18:23:06;9.75;;;8.02;;
44762;SDS011;30483;49.576;6.036;2024-03-08T18:25:32;11.20;;;8.75;;
44762;SDS011;30483;49.576;6.036;2024-03-08T18:28:01;12.73;;;9.20;;
44762;SDS011;30483;49.576;6.036;2024-03-08T18:30:33;9.68;;;8.60;;
44762;SDS011;30483;49.576;6.036;2024-03-08T18:33:02;12.70;;;9.23;;
44762;SDS011;30483;49.576;6.036;2024-03-08T18:35:28;10.48;;;8.82;;
44762;SDS011;30483;49.576;6.036;2024-03-08T18:37:54;10.30;;;8.43;;
44762;SDS011;30483;49.576;6.036;2024-03-08T18:40:21;11.05;;;8.57;;
44762;SDS011;30483;49.576;6.036;2024-03-08T18:42:50;10.95;;;8.15;;
44762;SDS011;30483;49.576;6.036;2024-03-08T18:45:17;10.57;;;8.55;;
44762;SDS011;30483;49.576;6.036;2024-03-08T18:47:44;10.07;;;8.25;;
44762;SDS011;30483;49.576;6.036;2024-03-08T18:50:13;10.33;;;8.60;;
44762;SDS011;30483;49.576;6.036;2024-03-08T18:52:49;10.32;;;8.32;;
44762;SDS011;30483;49.576;6.036;2024-03-08T18:55:16;10.13;;;8.30;;
44762;SDS011;30483;49.576;6.036;2024-03-08T18:57:49;11.02;;;8.93;;
44762;SDS011;30483;49.576;6.036;2024-03-08T19:00:18;12.60;;;9.10;;
44762;SDS011;30483;49.576;6.036;2024-03-08T19:02:52;10.68;;;8.77;;
44762;SDS011;30483;49.576;6.036;2024-03-08T19:05:19;10.20;;;8.05;;
44762;SDS011;30483;49.576;6.036;2024-03-08T19:07:50;9.70;;;7.88;;
44762;SDS011;30483;49.576;6.036;2024-03-08T19:10:17;10.52;;;8.57;;
44762;SDS011;30483;49.576;6.036;2024-03-08T19:12:47;9.45;;;7.63;;
44762;SDS011;30483;49.576;6.036;2024-03-08T19:15:16;12.18;;;8.90;;
44762;SDS011;30483;49.576;6.036;2024-03-08T19:17:44;10.20;;;8.23;;
44762;SDS011;30483;49.576;6.036;2024-03-08T19:20:12;8.98;;;7.70;;
44762;SDS011;30483;49.576;6.036;2024-03-08T19:22:41;10.18;;;8.38;;
44762;SDS011;30483;49.576;6.036;2024-03-08T19:25:08;10.35;;;8.40;;
44762;SDS011;30483;49.576;6.036;2024-03-08T19:27:35;10.40;;;8.48;;
44762;SDS011;30483;49.576;6.036;2024-03-08T19:30:08;10.73;;;7.95;;
44762;SDS011;30483;49.576;6.036;2024-03-08T19:32:35;10.95;;;8.65;;
44762;SDS011;30483;49.576;6.036;2024-03-08T19:35:03;11.32;;;8.30;;
44762;SDS011;30483;49.576;6.036;2024-03-08T19:37:36;9.35;;;8.25;;